sensor_id;sensor_type;location;lat;lon;timestamp;pressure;altitude;pressure_sealevel;temperature;humidity
6030;BME280;3043;42.682;23.376;2022-12-05T00:01:40;95797.88;;;5.53;100.00
6030;BME280;3043;42.682;23.376;2022-12-05T00:04:11;95789.28;;;5.43;100.00
6030;BME280;3043;42.682;23.376;2022-12-05T00:06:38;95777.28;;;5.42;100.00
6030;BME280;3043;42.682;23.376;2022-12-05T00:09:06;95784.94;;;5.36;100.00
6030;BME280;3043;42.682;23.376;2022-12-05T00:11:36;95797.72;;;5.30;100.00
6030;BME280;3043;42.682;23.376;2022-12-05T00:14:05;95793.44;;;5.29;100.00
6030;BME280;3043;42.682;23.376;2022-12-05T00:16:32;95790.00;;;5.29;100.00
6030;BME280;3043;42.682;23.376;2022-12-05T00:18:59;95794.34;;;5.34;100.00
6030;BME280;3043;42.682;23.376;2022-12-05T00:21:26;95795.22;;;5.38;100.00
6030;BME280;3043;42.682;23.376;2022-12-05T00:23:53;95792.59;;;5.30;100.00
6030;BME280;3043;42.682;23.376;2022-12-05T00:26:19;95794.41;;;5.43;100.00
6030;BME280;3043;42.682;23.376;2022-12-05T00:28:45;95799.53;;;5.40;100.00
6030;BME280;3043;42.682;23.376;2022-12-05T00:31:14;95798.59;;;5.32;100.00
6030;BME280;3043;42.682;23.376;2022-12-05T00:33:41;95800.34;;;5.38;100.00
6030;BME280;3043;42.682;23.376;2022-12-05T00:36:10;95796.84;;;5.27;100.00
6030;BME280;3043;42.682;23.376;2022-12-05T00:38:37;95801.16;;;5.32;100.00
6030;BME280;3043;42.682;23.376;2022-12-05T00:41:17;95800.31;;;5.35;100.00
6030;BME280;3043;42.682;23.376;2022-12-05T00:43:43;95801.19;;;5.35;100.00
6030;BME280;3043;42.682;23.376;2022-12-05T00:46:12;95796.09;;;5.41;100.00
6030;BME280;3043;42.682;23.376;2022-12-05T00:48:38;95802.13;;;5.45;100.00
6030;BME280;3043;42.682;23.376;2022-12-05T00:51:07;95807.22;;;5.37;100.00
6030;BME280;3043;42.682;23.376;2022-12-05T00:53:33;95801.25;;;5.44;100.00
6030;BME280;3043;42.682;23.376;2022-12-05T00:56:04;95799.56;;;5.45;100.00
6030;BME280;3043;42.682;23.376;2022-12-05T00:58:30;95794.38;;;5.37;100.00
6030;BME280;3043;42.682;23.376;2022-12-05T01:00:56;95787.53;;;5.39;100.00
6030;BME280;3043;42.682;23.376;2022-12-05T01:03:22;95787.56;;;5.45;100.00
6030;BME280;3043;42.682;23.376;2022-12-05T01:05:48;95779.00;;;5.43;100.00
6030;BME280;3043;42.682;23.376;2022-12-05T01:08:13;95779.00;;;5.40;100.00
6030;BME280;3043;42.682;23.376;2022-12-05T01:10:39;95782.41;;;5.41;100.00
6030;BME280;3043;42.682;23.376;2022-12-05T01:13:04;95778.94;;;5.31;100.00
6030;BME280;3043;42.682;23.376;2022-12-05T01:15:29;95773.84;;;5.40;100.00
6030;BME280;3043;42.682;23.376;2022-12-05T01:17:55;95782.38;;;5.36;100.00
6030;BME280;3043;42.682;23.376;2022-12-05T01:20:20;95778.94;;;5.34;100.00
6030;BME280;3043;42.682;23.376;2022-12-05T01:22:46;95782.34;;;5.33;100.00
6030;BME280;3043;42.682;23.376;2022-12-05T01:25:11;95775.50;;;5.32;100.00
6030;BME280;3043;42.682;23.376;2022-12-05T01:27:36;95782.38;;;5.36;100.00
6030;BME280;3043;42.682;23.376;2022-12-05T01:30:03;95784.09;;;5.34;100.00
6030;BME280;3043;42.682;23.376;2022-12-05T01:32:28;95778.13;;;5.38;100.00
6030;BME280;3043;42.682;23.376;2022-12-05T01:34:54;95777.31;;;5.48;100.00
6030;BME280;3043;42.682;23.376;2022-12-05T01:37:19;95768.69;;;5.37;100.00
6030;BME280;3043;42.682;23.376;2022-12-05T01:39:45;95768.69;;;5.37;100.00
6030;BME280;3043;42.682;23.376;2022-12-05T01:42:11;95760.22;;;5.47;100.00
6030;BME280;3043;42.682;23.376;2022-12-05T01:47:02;95762.81;;;5.55;100.00
6030;BME280;3043;42.682;23.376;2022-12-05T01:49:35;95755.13;;;5.53;100.00
6030;BME280;3043;42.682;23.376;2022-12-05T01:52:05;95752.53;;;5.53;100.00
6030;BME280;3043;42.682;23.376;2022-12-05T01:54:34;95746.50;;;5.48;100.00
6030;BME280;3043;42.682;23.376;2022-12-05T01:57:02;95755.09;;;5.50;100.00
6030;BME280;3043;42.682;23.376;2022-12-05T01:59:30;95753.38;;;5.49;100.00
6030;BME280;3043;42.682;23.376;2022-12-05T02:01:57;95755.91;;;5.43;100.00
6030;BME280;3043;42.682;23.376;2022-12-05T02:04:23;95750.75;;;5.40;100.00
6030;BME280;3043;42.682;23.376;2022-12-05T02:06:48;95754.16;;;5.39;100.00
6030;BME280;3043;42.682;23.376;2022-12-05T02:09:14;95756.72;;;5.39;100.00
6030;BME280;3043;42.682;23.376;2022-12-05T02:11:54;95758.53;;;5.49;100.00
6030;BME280;3043;42.682;23.376;2022-12-05T02:14:31;95756.00;;;5.57;100.00
6030;BME280;3043;42.682;23.376;2022-12-05T02:17:12;95756.84;;;5.61;100.00
6030;BME280;3043;42.682;23.376;2022-12-05T02:31:41;95761.41;;;6.01;100.00
6030;BME280;3043;42.682;23.376;2022-12-05T02:37:12;95755.44;;;6.09;100.00
6030;BME280;3043;42.682;23.376;2022-12-05T02:42:43;95756.34;;;6.17;100.00
6030;BME280;3043;42.682;23.376;2022-12-05T02:45:13;95755.50;;;6.17;100.00
6030;BME280;3043;42.682;23.376;2022-12-05T02:47:44;95746.91;;;6.12;100.00
6030;BME280;3043;42.682;23.376;2022-12-05T02:50:13;95735.75;;;6.11;100.00
6030;BME280;3043;42.682;23.376;2022-12-05T02:52:41;95741.75;;;6.07;100.00
6030;BME280;3043;42.682;23.376;2022-12-05T02:55:07;95740.00;;;6.05;100.00
6030;BME280;3043;42.682;23.376;2022-12-05T02:57:35;95744.31;;;6.03;100.00
6030;BME280;3043;42.682;23.376;2022-12-05T03:00:00;95734.88;;;6.05;100.00
6030;BME280;3043;42.682;23.376;2022-12-05T03:02:31;95736.63;;;6.09;100.00
6030;BME280;3043;42.682;23.376;2022-12-05T03:05:34;95733.19;;;6.10;100.00
6030;BME280;3043;42.682;23.376;2022-12-05T03:08:07;95734.06;;;6.12;100.00
6030;BME280;3043;42.682;23.376;2022-12-05T03:10:37;95736.63;;;6.12;100.00
6030;BME280;3043;42.682;23.376;2022-12-05T03:13:13;95730.59;;;6.05;100.00
6030;BME280;3043;42.682;23.376;2022-12-05T03:15:46;95736.66;;;6.15;100.00
6030;BME280;3043;42.682;23.376;2022-12-05T03:18:21;95734.97;;;6.23;100.00
6030;BME280;3043;42.682;23.376;2022-12-05T03:20:59;95735.00;;;6.29;100.00
6030;BME280;3043;42.682;23.376;2022-12-05T03:23:32;95741.00;;;6.37;100.00
6030;BME280;3043;42.682;23.376;2022-12-05T03:31:58;95746.97;;;6.24;100.00
6030;BME280;3043;42.682;23.376;2022-12-05T03:37:04;95749.53;;;6.27;100.00
6030;BME280;3043;42.682;23.376;2022-12-05T03:39:32;95750.38;;;6.20;100.00
6030;BME280;3043;42.682;23.376;2022-12-05T03:42:11;95750.41;;;6.29;100.00
6030;BME280;3043;42.682;23.376;2022-12-05T03:44:51;95748.66;;;6.25;100.00
6030;BME280;3043;42.682;23.376;2022-12-05T03:47:29;95754.69;;;6.30;100.00
6030;BME280;3043;42.682;23.376;2022-12-05T03:50:02;95747.84;;;6.32;100.00
6030;BME280;3043;42.682;23.376;2022-12-05T03:52:37;95749.53;;;6.22;100.00
6030;BME280;3043;42.682;23.376;2022-12-05T03:55:07;95748.66;;;6.20;100.00
6030;BME280;3043;42.682;23.376;2022-12-05T04:00:15;95757.16;;;6.03;100.00
6030;BME280;3043;42.682;23.376;2022-12-05T04:03:05;95757.16;;;6.06;100.00
6030;BME280;3043;42.682;23.376;2022-12-05T04:05:54;95757.13;;;5.97;100.00
6030;BME280;3043;42.682;23.376;2022-12-05T04:08:37;95757.25;;;6.24;100.00
6030;BME280;3043;42.682;23.376;2022-12-05T04:11:08;95746.97;;;6.27;100.00
6030;BME280;3043;42.682;23.376;2022-12-05T04:13:45;95752.16;;;6.39;100.00
6030;BME280;3043;42.682;23.376;2022-12-05T04:16:16;95743.56;;;6.34;100.00
6030;BME280;3043;42.682;23.376;2022-12-05T04:19:08;95749.56;;;6.28;100.00
6030;BME280;3043;42.682;23.376;2022-12-05T04:21:40;95746.97;;;6.27;100.00
6030;BME280;3043;42.682;23.376;2022-12-05T04:24:12;95735.00;;;6.29;100.00
6030;BME280;3043;42.682;23.376;2022-12-05T04:30:06;95734.91;;;6.14;100.00
6030;BME280;3043;42.682;23.376;2022-12-05T04:32:44;95729.78;;;6.14;100.00
6030;BME280;3043;42.682;23.376;2022-12-05T04:35:18;95740.03;;;6.08;100.00
6030;BME280;3043;42.682;23.376;2022-12-05T04:37:48;95731.44;;;6.00;100.00
6030;BME280;3043;42.682;23.376;2022-12-05T04:40:32;95738.31;;;6.04;100.00
6030;BME280;3043;42.682;23.376;2022-12-05T04:43:01;95740.00;;;6.02;100.00
6030;BME280;3043;42.682;23.376;2022-12-05T04:45:28;95744.34;;;6.09;100.00
6030;BME280;3043;42.682;23.376;2022-12-05T04:47:59;95758.94;;;6.19;100.00
6030;BME280;3043;42.682;23.376;2022-12-05T04:50:29;95752.06;;;6.12;100.00
6030;BME280;3043;42.682;23.376;2022-12-05T04:52:56;95756.38;;;6.25;100.00
6030;BME280;3043;42.682;23.376;2022-12-05T04:55:24;95748.69;;;6.34;100.00
6030;BME280;3043;42.682;23.376;2022-12-05T04:58:14;95752.13;;;6.30;100.00
6030;BME280;3043;42.682;23.376;2022-12-05T05:03:41;95762.38;;;6.24;100.00
6030;BME280;3043;42.682;23.376;2022-12-05T05:06:04;95758.97;;;6.34;100.00
6030;BME280;3043;42.682;23.376;2022-12-05T05:08:30;95763.28;;;6.32;100.00
6030;BME280;3043;42.682;23.376;2022-12-05T05:11:14;95767.50;;;6.15;100.00
6030;BME280;3043;42.682;23.376;2022-12-05T05:13:40;95767.50;;;6.15;100.00
6030;BME280;3043;42.682;23.376;2022-12-05T05:16:06;95773.50;;;6.17;100.00
6030;BME280;3043;42.682;23.376;2022-12-05T05:18:32;95776.88;;;6.13;100.00
6030;BME280;3043;42.682;23.376;2022-12-05T05:20:58;95788.84;;;6.05;100.00
6030;BME280;3043;42.682;23.376;2022-12-05T05:23:23;95783.72;;;6.12;100.00
6030;BME280;3043;42.682;23.376;2022-12-05T05:25:53;95781.13;;;6.08;100.00
6030;BME280;3043;42.682;23.376;2022-12-05T05:28:20;95784.63;;;6.19;100.00
6030;BME280;3043;42.682;23.376;2022-12-05T05:30:45;95780.34;;;6.18;100.00
6030;BME280;3043;42.682;23.376;2022-12-05T05:33:11;95788.06;;;6.18;100.00
6030;BME280;3043;42.682;23.376;2022-12-05T05:35:37;95794.09;;;6.23;100.00
6030;BME280;3043;42.682;23.376;2022-12-05T05:38:02;95788.09;;;6.24;100.00
6030;BME280;3043;42.682;23.376;2022-12-05T05:40:28;95788.97;;;6.23;100.00
6030;BME280;3043;42.682;23.376;2022-12-05T05:42:53;95788.09;;;6.27;100.00
6030;BME280;3043;42.682;23.376;2022-12-05T05:45:19;95782.09;;;6.29;100.00
6030;BME280;3043;42.682;23.376;2022-12-05T05:47:47;95784.66;;;6.23;100.00
6030;BME280;3043;42.682;23.376;2022-12-05T05:50:12;95786.38;;;6.20;100.00
6030;BME280;3043;42.682;23.376;2022-12-05T05:52:37;95791.50;;;6.17;100.00
6030;BME280;3043;42.682;23.376;2022-12-05T05:55:05;95790.66;;;6.22;100.00
6030;BME280;3043;42.682;23.376;2022-12-05T05:57:31;95791.53;;;6.23;100.00
6030;BME280;3043;42.682;23.376;2022-12-05T05:59:56;95799.25;;;6.29;100.00
6030;BME280;3043;42.682;23.376;2022-12-05T06:02:22;95795.00;;;6.40;100.00
6030;BME280;3043;42.682;23.376;2022-12-05T06:04:47;95799.28;;;6.35;100.00
6030;BME280;3043;42.682;23.376;2022-12-05T06:07:13;95800.09;;;6.31;100.00
6030;BME280;3043;42.682;23.376;2022-12-05T06:09:38;95801.03;;;6.45;100.00
6030;BME280;3043;42.682;23.376;2022-12-05T06:12:04;95799.31;;;6.39;100.00
6030;BME280;3043;42.682;23.376;2022-12-05T06:14:29;95813.91;;;6.51;100.00
6030;BME280;3043;42.682;23.376;2022-12-05T06:16:55;95808.84;;;6.69;100.00
6030;BME280;3043;42.682;23.376;2022-12-05T06:19:20;95815.72;;;6.76;100.00
6030;BME280;3043;42.682;23.376;2022-12-05T06:21:48;95814.00;;;6.75;100.00
6030;BME280;3043;42.682;23.376;2022-12-05T06:24:15;95815.72;;;6.76;100.00
6030;BME280;3043;42.682;23.376;2022-12-05T06:26:40;95810.59;;;6.76;100.00
6030;BME280;3043;42.682;23.376;2022-12-05T06:29:06;95813.16;;;6.79;100.00
6030;BME280;3043;42.682;23.376;2022-12-05T06:31:31;95809.72;;;6.71;100.00
6030;BME280;3043;42.682;23.376;2022-12-05T06:34:01;95815.72;;;6.73;100.00
6030;BME280;3043;42.682;23.376;2022-12-05T06:36:27;95819.13;;;6.66;100.00
6030;BME280;3043;42.682;23.376;2022-12-05T06:38:58;95811.38;;;6.64;100.00
6030;BME280;3043;42.682;23.376;2022-12-05T06:41:24;95819.09;;;6.60;100.00
6030;BME280;3043;42.682;23.376;2022-12-05T06:43:54;95812.25;;;6.62;100.00
6030;BME280;3043;42.682;23.376;2022-12-05T06:46:20;95813.91;;;6.51;100.00
6030;BME280;3043;42.682;23.376;2022-12-05T06:48:46;95818.19;;;6.47;100.00
6030;BME280;3043;42.682;23.376;2022-12-05T06:51:13;95819.03;;;6.42;100.00
6030;BME280;3043;42.682;23.376;2022-12-05T06:53:40;95820.72;;;6.41;100.00
6030;BME280;3043;42.682;23.376;2022-12-05T06:56:09;95822.47;;;6.41;100.00
6030;BME280;3043;42.682;23.376;2022-12-05T06:58:39;95802.72;;;6.41;100.00
6030;BME280;3043;42.682;23.376;2022-12-05T07:01:05;95807.06;;;6.50;100.00
6030;BME280;3043;42.682;23.376;2022-12-05T07:03:52;95801.06;;;6.49;100.00
6030;BME280;3043;42.682;23.376;2022-12-05T07:06:17;95805.31;;;6.43;100.00
6030;BME280;3043;42.682;23.376;2022-12-05T07:08:43;95808.78;;;6.57;100.00
6030;BME280;3043;42.682;23.376;2022-12-05T07:11:09;95813.13;;;6.70;100.00
6030;BME280;3043;42.682;23.376;2022-12-05T07:13:35;95822.53;;;6.65;100.00
6030;BME280;3043;42.682;23.376;2022-12-05T07:16:00;95814.81;;;6.56;100.00
6030;BME280;3043;42.682;23.376;2022-12-05T07:18:26;95824.22;;;6.60;100.00
6030;BME280;3043;42.682;23.376;2022-12-05T07:21:00;95815.63;;;6.55;100.00
6030;BME280;3043;42.682;23.376;2022-12-05T07:23:27;95822.56;;;6.68;100.00
6030;BME280;3043;42.682;23.376;2022-12-05T07:25:53;95827.72;;;6.72;100.00
6030;BME280;3043;42.682;23.376;2022-12-05T07:28:19;95823.38;;;6.61;100.00
6030;BME280;3043;42.682;23.376;2022-12-05T07:30:44;95824.25;;;6.67;100.00
6030;BME280;3043;42.682;23.376;2022-12-05T07:33:10;95824.22;;;6.57;100.00
6030;BME280;3043;42.682;23.376;2022-12-05T07:35:35;95825.94;;;6.58;100.00
6030;BME280;3043;42.682;23.376;2022-12-05T07:38:01;95836.25;;;6.67;100.00
6030;BME280;3043;42.682;23.376;2022-12-05T07:40:27;95838.00;;;6.74;100.00
6030;BME280;3043;42.682;23.376;2022-12-05T07:42:52;95838.00;;;6.68;100.00
6030;BME280;3043;42.682;23.376;2022-12-05T07:45:19;95835.41;;;6.68;100.00
6030;BME280;3043;42.682;23.376;2022-12-05T07:47:45;95842.22;;;6.58;100.00
6030;BME280;3043;42.682;23.376;2022-12-05T07:50:10;95845.66;;;6.56;100.00
6030;BME280;3043;42.682;23.376;2022-12-05T07:52:36;95847.34;;;6.54;100.00
6030;BME280;3043;42.682;23.376;2022-12-05T07:55:01;95844.81;;;6.60;100.00
6030;BME280;3043;42.682;23.376;2022-12-05T07:57:30;95839.69;;;6.69;100.00
6030;BME280;3043;42.682;23.376;2022-12-05T07:59:55;95832.84;;;6.71;100.00
6030;BME280;3043;42.682;23.376;2022-12-05T08:02:21;95828.59;;;6.76;100.00
6030;BME280;3043;42.682;23.376;2022-12-05T08:04:47;95827.72;;;6.74;100.00
6030;BME280;3043;42.682;23.376;2022-12-05T08:07:12;95829.44;;;6.78;100.00
6030;BME280;3043;42.682;23.376;2022-12-05T08:09:38;95828.63;;;6.83;100.00
6030;BME280;3043;42.682;23.376;2022-12-05T08:12:03;95829.47;;;6.90;100.00
6030;BME280;3043;42.682;23.376;2022-12-05T08:14:29;95824.34;;;6.96;100.00
6030;BME280;3043;42.682;23.376;2022-12-05T08:16:54;95841.50;;;6.88;100.00
6030;BME280;3043;42.682;23.376;2022-12-05T08:19:19;95841.50;;;6.88;100.00
6030;BME280;3043;42.682;23.376;2022-12-05T08:21:45;95841.50;;;6.94;100.00
6030;BME280;3043;42.682;23.376;2022-12-05T08:24:11;95834.63;;;6.99;100.00
6030;BME280;3043;42.682;23.376;2022-12-05T08:26:37;95838.09;;;7.04;100.00
6030;BME280;3043;42.682;23.376;2022-12-05T08:29:05;95834.66;;;7.02;100.00
6030;BME280;3043;42.682;23.376;2022-12-05T08:31:33;95842.38;;;7.05;100.00
6030;BME280;3043;42.682;23.376;2022-12-05T08:33:59;95848.41;;;7.10;100.00
6030;BME280;3043;42.682;23.376;2022-12-05T08:36:26;95841.56;;;7.18;100.00
6030;BME280;3043;42.682;23.376;2022-12-05T08:39:01;95846.72;;;7.36;100.00
6030;BME280;3043;42.682;23.376;2022-12-05T08:41:27;95840.72;;;7.43;100.00
6030;BME280;3043;42.682;23.376;2022-12-05T08:43:55;95844.16;;;7.51;100.00
6030;BME280;3043;42.682;23.376;2022-12-05T08:46:20;95835.56;;;7.51;100.00
6030;BME280;3043;42.682;23.376;2022-12-05T08:48:46;95837.31;;;7.52;100.00
6030;BME280;3043;42.682;23.376;2022-12-05T08:51:12;95834.75;;;7.53;100.00
6030;BME280;3043;42.682;23.376;2022-12-05T08:53:39;95834.75;;;7.59;100.00
6030;BME280;3043;42.682;23.376;2022-12-05T08:56:06;95834.75;;;7.59;100.00
6030;BME280;3043;42.682;23.376;2022-12-05T08:58:32;95837.31;;;7.61;100.00
6030;BME280;3043;42.682;23.376;2022-12-05T09:01:06;95836.44;;;7.66;100.00
6030;BME280;3043;42.682;23.376;2022-12-05T09:03:32;95839.88;;;7.83;100.00
6030;BME280;3043;42.682;23.376;2022-12-05T09:06:33;95843.31;;;7.85;100.00
6030;BME280;3043;42.682;23.376;2022-12-05T09:09:00;95847.63;;;7.76;100.00
6030;BME280;3043;42.682;23.376;2022-12-05T09:11:31;95833.03;;;7.70;100.00
6030;BME280;3043;42.682;23.376;2022-12-05T09:13:58;95842.44;;;7.89;100.00
6030;BME280;3043;42.682;23.376;2022-12-05T09:16:28;95842.44;;;7.92;100.00
6030;BME280;3043;42.682;23.376;2022-12-05T09:18:54;95838.13;;;8.06;100.00
6030;BME280;3043;42.682;23.376;2022-12-05T09:21:22;95840.72;;;8.23;100.00
6030;BME280;3043;42.682;23.376;2022-12-05T09:23:49;95836.38;;;8.38;100.00
6030;BME280;3043;42.682;23.376;2022-12-05T09:26:17;95841.50;;;8.50;100.00
6030;BME280;3043;42.682;23.376;2022-12-05T09:28:43;95835.44;;;8.57;100.00
6030;BME280;3043;42.682;23.376;2022-12-05T09:31:11;95838.03;;;8.57;100.00
6030;BME280;3043;42.682;23.376;2022-12-05T09:33:37;95832.88;;;8.54;100.00
6030;BME280;3043;42.682;23.376;2022-12-05T09:36:04;95831.13;;;8.65;100.00
6030;BME280;3043;42.682;23.376;2022-12-05T09:38:31;95834.53;;;8.67;100.00
6030;BME280;3043;42.682;23.376;2022-12-05T09:44:01;95830.25;;;8.63;100.00
6030;BME280;3043;42.682;23.376;2022-12-05T09:46:52;95831.13;;;8.65;100.00
6030;BME280;3043;42.682;23.376;2022-12-05T09:49:21;95825.06;;;8.74;100.00
6030;BME280;3043;42.682;23.376;2022-12-05T09:51:49;95825.09;;;8.62;100.00
6030;BME280;3043;42.682;23.376;2022-12-05T09:54:15;95823.38;;;8.67;100.00
6030;BME280;3043;42.682;23.376;2022-12-05T09:56:43;95822.47;;;8.72;100.00
6030;BME280;3043;42.682;23.376;2022-12-05T09:59:13;95822.50;;;8.66;100.00
6030;BME280;3043;42.682;23.376;2022-12-05T10:05:03;95811.38;;;8.52;100.00
6030;BME280;3043;42.682;23.376;2022-12-05T10:08:14;95815.72;;;8.47;100.00
6030;BME280;3043;42.682;23.376;2022-12-05T10:13:39;95797.66;;;8.47;100.00
6030;BME280;3043;42.682;23.376;2022-12-05T10:16:14;95800.22;;;8.50;100.00
6030;BME280;3043;42.682;23.376;2022-12-05T10:18:49;95799.34;;;8.53;100.00
6030;BME280;3043;42.682;23.376;2022-12-05T10:24:05;95794.13;;;8.65;100.00
6030;BME280;3043;42.682;23.376;2022-12-05T10:26:42;95796.69;;;8.66;100.00
6030;BME280;3043;42.682;23.376;2022-12-05T10:31:59;95800.88;;;8.93;100.00
6030;BME280;3043;42.682;23.376;2022-12-05T10:34:30;95798.38;;;8.82;100.00
6030;BME280;3043;42.682;23.376;2022-12-05T10:37:07;95800.97;;;8.78;100.00
6030;BME280;3043;42.682;23.376;2022-12-05T10:39:34;95788.81;;;8.95;100.00
6030;BME280;3043;42.682;23.376;2022-12-05T10:42:00;95794.91;;;8.80;100.00
6030;BME280;3043;42.682;23.376;2022-12-05T10:44:25;95787.09;;;8.92;100.00
6030;BME280;3043;42.682;23.376;2022-12-05T10:46:51;95782.81;;;8.94;100.00
6030;BME280;3043;42.682;23.376;2022-12-05T10:49:17;95787.09;;;8.94;100.00
6030;BME280;3043;42.682;23.376;2022-12-05T10:51:43;95777.72;;;8.79;100.00
6030;BME280;3043;42.682;23.376;2022-12-05T10:54:22;95772.66;;;8.58;100.00
6030;BME280;3043;42.682;23.376;2022-12-05T10:56:50;95781.34;;;8.41;100.00
6030;BME280;3043;42.682;23.376;2022-12-05T10:59:19;95777.09;;;8.22;100.00
6030;BME280;3043;42.682;23.376;2022-12-05T11:01:48;95777.94;;;8.16;100.00
6030;BME280;3043;42.682;23.376;2022-12-05T11:04:29;95766.81;;;8.01;100.00
6030;BME280;3043;42.682;23.376;2022-12-05T11:07:00;95760.78;;;8.24;100.00
6030;BME280;3043;42.682;23.376;2022-12-05T11:09:30;95770.19;;;8.19;100.00
6030;BME280;3043;42.682;23.376;2022-12-05T11:17:34;95768.56;;;7.93;100.00
6030;BME280;3043;42.682;23.376;2022-12-05T11:20:01;95753.13;;;7.88;100.00
6030;BME280;3043;42.682;23.376;2022-12-05T11:22:34;95762.53;;;7.92;100.00
6030;BME280;3043;42.682;23.376;2022-12-05T11:25:00;95753.97;;;7.81;100.00
6030;BME280;3043;42.682;23.376;2022-12-05T11:27:30;95750.53;;;7.88;100.00
6030;BME280;3043;42.682;23.376;2022-12-05T11:32:24;95743.66;;;7.78;100.00
6030;BME280;3043;42.682;23.376;2022-12-05T11:35:00;95745.41;;;7.82;100.00
6030;BME280;3043;42.682;23.376;2022-12-05T11:37:42;95744.50;;;7.88;100.00
6030;BME280;3043;42.682;23.376;2022-12-05T12:06:21;95705.97;;;7.44;100.00
6030;BME280;3043;42.682;23.376;2022-12-05T12:09:01;95716.25;;;7.47;100.00
6030;BME280;3043;42.682;23.376;2022-12-05T12:11:47;95695.66;;;7.50;100.00
6030;BME280;3043;42.682;23.376;2022-12-05T12:17:15;95699.94;;;7.50;100.00
6030;BME280;3043;42.682;23.376;2022-12-05T12:31:04;95678.44;;;7.49;100.00
6030;BME280;3043;42.682;23.376;2022-12-05T12:36:23;95669.88;;;7.56;100.00
6030;BME280;3043;42.682;23.376;2022-12-05T12:42:18;95669.88;;;7.56;100.00
6030;BME280;3043;42.682;23.376;2022-12-05T12:47:35;95672.47;;;7.47;100.00
6030;BME280;3043;42.682;23.376;2022-12-05T12:50:26;95673.34;;;7.34;100.00
6030;BME280;3043;42.682;23.376;2022-12-05T12:58:38;95669.94;;;7.20;100.00
6030;BME280;3043;42.682;23.376;2022-12-05T13:01:16;95673.34;;;7.19;100.00
6030;BME280;3043;42.682;23.376;2022-12-05T13:03:55;95661.34;;;7.12;100.00
6030;BME280;3043;42.682;23.376;2022-12-05T13:06:43;95657.06;;;7.09;100.00
6030;BME280;3043;42.682;23.376;2022-12-05T13:09:30;95657.91;;;7.10;100.00
6030;BME280;3043;42.682;23.376;2022-12-05T13:12:06;95651.06;;;7.12;100.00
6030;BME280;3043;42.682;23.376;2022-12-05T13:14:35;95663.06;;;7.07;100.00
6030;BME280;3043;42.682;23.376;2022-12-05T13:17:04;95654.47;;;6.99;100.00
6030;BME280;3043;42.682;23.376;2022-12-05T13:19:39;95651.06;;;7.03;100.00
6030;BME280;3043;42.682;23.376;2022-12-05T13:22:06;95657.91;;;7.13;100.00
6030;BME280;3043;42.682;23.376;2022-12-05T13:24:33;95653.63;;;7.16;100.00
6030;BME280;3043;42.682;23.376;2022-12-05T13:27:03;95678.50;;;7.19;100.00
6030;BME280;3043;42.682;23.376;2022-12-05T13:29:40;95657.91;;;7.16;100.00
6030;BME280;3043;42.682;23.376;2022-12-05T13:34:49;95659.63;;;6.78;100.00
6030;BME280;3043;42.682;23.376;2022-12-05T13:37:29;95660.50;;;6.77;100.00
6030;BME280;3043;42.682;23.376;2022-12-05T13:43:05;95649.34;;;6.84;100.00
6030;BME280;3043;42.682;23.376;2022-12-05T13:45:31;95656.22;;;6.88;100.00
6030;BME280;3043;42.682;23.376;2022-12-05T13:50:54;95657.94;;;6.86;100.00
6030;BME280;3043;42.682;23.376;2022-12-05T13:53:30;95659.63;;;6.90;100.00
6030;BME280;3043;42.682;23.376;2022-12-05T14:00:50;95660.50;;;6.92;100.00
6030;BME280;3043;42.682;23.376;2022-12-05T14:06:05;95663.09;;;6.92;100.00
6030;BME280;3043;42.682;23.376;2022-12-05T14:15:52;95664.78;;;6.93;100.00
6030;BME280;3043;42.682;23.376;2022-12-05T14:18:40;95660.50;;;6.87;100.00
6030;BME280;3043;42.682;23.376;2022-12-05T14:21:23;95664.78;;;6.81;100.00
6030;BME280;3043;42.682;23.376;2022-12-05T14:27:03;95668.22;;;6.89;100.00
6030;BME280;3043;42.682;23.376;2022-12-05T14:30:01;95668.22;;;6.90;100.00
6030;BME280;3043;42.682;23.376;2022-12-05T14:32:30;95664.78;;;6.90;100.00
6030;BME280;3043;42.682;23.376;2022-12-05T14:39:51;95672.50;;;6.94;100.00
6030;BME280;3043;42.682;23.376;2022-12-05T14:42:22;95668.22;;;6.95;100.00
6030;BME280;3043;42.682;23.376;2022-12-05T14:44:52;95673.38;;;6.92;100.00
6030;BME280;3043;42.682;23.376;2022-12-05T14:47:25;95663.09;;;6.92;100.00
6030;BME280;3043;42.682;23.376;2022-12-05T14:49:59;95669.94;;;6.99;100.00
6030;BME280;3043;42.682;23.376;2022-12-05T14:52:44;95675.06;;;6.99;100.00
6030;BME280;3043;42.682;23.376;2022-12-05T14:55:29;95668.22;;;7.04;100.00
6030;BME280;3043;42.682;23.376;2022-12-05T14:57:55;95672.50;;;7.05;100.00
6030;BME280;3043;42.682;23.376;2022-12-05T15:00:21;95680.22;;;7.02;100.00
6030;BME280;3043;42.682;23.376;2022-12-05T15:02:48;95672.50;;;7.00;100.00
6030;BME280;3043;42.682;23.376;2022-12-05T15:05:25;95676.81;;;6.97;100.00
6030;BME280;3043;42.682;23.376;2022-12-05T15:07:52;95666.53;;;6.94;100.00
6030;BME280;3043;42.682;23.376;2022-12-05T15:10:28;95659.63;;;6.99;100.00
6030;BME280;3043;42.682;23.376;2022-12-05T15:12:59;95657.06;;;6.91;100.00
6030;BME280;3043;42.682;23.376;2022-12-05T15:18:46;95659.63;;;6.99;100.00
6030;BME280;3043;42.682;23.376;2022-12-05T15:21:24;95666.53;;;6.97;100.00
6030;BME280;3043;42.682;23.376;2022-12-05T15:23:55;95670.78;;;7.19;100.00
6030;BME280;3043;42.682;23.376;2022-12-05T15:29:06;95662.22;;;7.21;100.00
6030;BME280;3043;42.682;23.376;2022-12-05T15:31:58;95664.78;;;7.23;100.00
6030;BME280;3043;42.682;23.376;2022-12-05T15:34:52;95660.47;;;7.17;100.00
6030;BME280;3043;42.682;23.376;2022-12-05T15:37:24;95657.91;;;7.04;100.00
6030;BME280;3043;42.682;23.376;2022-12-05T15:42:42;95662.22;;;6.85;100.00
6030;BME280;3043;42.682;23.376;2022-12-05T15:47:38;95657.94;;;6.77;100.00
6030;BME280;3043;42.682;23.376;2022-12-05T15:50:04;95651.91;;;6.72;100.00
6030;BME280;3043;42.682;23.376;2022-12-05T15:52:37;95656.22;;;6.68;100.00
6030;BME280;3043;42.682;23.376;2022-12-05T15:55:09;95649.34;;;6.69;100.00
6030;BME280;3043;42.682;23.376;2022-12-05T15:57:41;95653.66;;;6.88;100.00
6030;BME280;3043;42.682;23.376;2022-12-05T16:00:17;95651.91;;;6.82;100.00
6030;BME280;3043;42.682;23.376;2022-12-05T16:05:29;95657.94;;;6.77;100.00
6030;BME280;3043;42.682;23.376;2022-12-05T16:07:59;95650.22;;;6.71;100.00